sensor_id;sensor_type;location;lat;lon;timestamp;P1;durP1;ratioP1;P2;durP2;ratioP2
16314;SDS011;8266;52.150;4.768;2022-10-03T00:01:11;5.05;;;1.80;;
16314;SDS011;8266;52.150;4.768;2022-10-03T00:03:49;4.78;;;0.80;;
16314;SDS011;8266;52.150;4.768;2022-10-03T00:06:28;2.63;;;1.05;;
16314;SDS011;8266;52.150;4.768;2022-10-03T00:09:15;4.57;;;1.27;;
16314;SDS011;8266;52.150;4.768;2022-10-03T00:11:54;5.43;;;1.55;;
16314;SDS011;8266;52.150;4.768;2022-10-03T00:14:40;2.63;;;0.68;;
16314;SDS011;8266;52.150;4.768;2022-10-03T00:17:17;2.30;;;0.80;;
16314;SDS011;8266;52.150;4.768;2022-10-03T00:19:48;4.72;;;1.30;;
16314;SDS011;8266;52.150;4.768;2022-10-03T00:22:27;4.38;;;1.10;;
16314;SDS011;8266;52.150;4.768;2022-10-03T00:25:11;4.60;;;1.23;;
16314;SDS011;8266;52.150;4.768;2022-10-03T00:27:56;3.97;;;0.98;;
16314;SDS011;8266;52.150;4.768;2022-10-03T00:30:44;5.13;;;1.58;;
16314;SDS011;8266;52.150;4.768;2022-10-03T00:33:29;5.38;;;1.23;;
16314;SDS011;8266;52.150;4.768;2022-10-03T00:36:05;2.33;;;0.90;;
16314;SDS011;8266;52.150;4.768;2022-10-03T00:38:50;3.08;;;0.95;;
16314;SDS011;8266;52.150;4.768;2022-10-03T00:41:31;2.88;;;1.00;;
16314;SDS011;8266;52.150;4.768;2022-10-03T00:50:36;5.22;;;1.10;;
16314;SDS011;8266;52.150;4.768;2022-10-03T00:56:21;3.72;;;1.20;;
16314;SDS011;8266;52.150;4.768;2022-10-03T00:59:07;7.13;;;1.75;;
16314;SDS011;8266;52.150;4.768;2022-10-03T01:01:45;6.07;;;1.17;;
16314;SDS011;8266;52.150;4.768;2022-10-03T01:04:20;2.35;;;0.75;;
16314;SDS011;8266;52.150;4.768;2022-10-03T01:07:11;3.28;;;0.82;;
16314;SDS011;8266;52.150;4.768;2022-10-03T01:09:59;3.15;;;1.10;;
16314;SDS011;8266;52.150;4.768;2022-10-03T01:12:48;2.67;;;0.88;;
16314;SDS011;8266;52.150;4.768;2022-10-03T01:15:29;3.90;;;1.10;;
16314;SDS011;8266;52.150;4.768;2022-10-03T01:18:21;5.82;;;1.00;;
16314;SDS011;8266;52.150;4.768;2022-10-03T01:20:59;5.35;;;1.33;;
16314;SDS011;8266;52.150;4.768;2022-10-03T01:23:37;2.42;;;1.05;;
16314;SDS011;8266;52.150;4.768;2022-10-03T01:26:31;4.40;;;1.05;;
16314;SDS011;8266;52.150;4.768;2022-10-03T01:29:15;5.03;;;1.25;;
16314;SDS011;8266;52.150;4.768;2022-10-03T01:32:06;5.50;;;1.15;;
16314;SDS011;8266;52.150;4.768;2022-10-03T01:34:41;2.90;;;0.95;;
16314;SDS011;8266;52.150;4.768;2022-10-03T01:37:16;5.88;;;1.33;;
16314;SDS011;8266;52.150;4.768;2022-10-03T01:39:53;5.00;;;1.25;;
16314;SDS011;8266;52.150;4.768;2022-10-03T01:42:34;6.82;;;1.17;;
16314;SDS011;8266;52.150;4.768;2022-10-03T01:45:11;3.30;;;1.00;;
16314;SDS011;8266;52.150;4.768;2022-10-03T01:47:48;5.72;;;1.30;;
16314;SDS011;8266;52.150;4.768;2022-10-03T01:50:20;3.92;;;0.90;;
16314;SDS011;8266;52.150;4.768;2022-10-03T01:52:53;3.22;;;0.90;;
16314;SDS011;8266;52.150;4.768;2022-10-03T01:55:29;3.90;;;0.90;;
16314;SDS011;8266;52.150;4.768;2022-10-03T01:58:02;4.57;;;1.13;;
16314;SDS011;8266;52.150;4.768;2022-10-03T02:00:39;4.57;;;1.08;;
16314;SDS011;8266;52.150;4.768;2022-10-03T02:03:14;3.25;;;0.90;;
16314;SDS011;8266;52.150;4.768;2022-10-03T02:05:47;2.97;;;1.23;;
16314;SDS011;8266;52.150;4.768;2022-10-03T02:08:25;3.15;;;1.00;;
16314;SDS011;8266;52.150;4.768;2022-10-03T02:11:00;7.15;;;1.20;;
16314;SDS011;8266;52.150;4.768;2022-10-03T02:13:38;2.72;;;0.80;;
16314;SDS011;8266;52.150;4.768;2022-10-03T02:16:14;1.88;;;0.80;;
16314;SDS011;8266;52.150;4.768;2022-10-03T02:18:57;3.40;;;0.88;;
16314;SDS011;8266;52.150;4.768;2022-10-03T02:21:30;4.68;;;1.00;;
16314;SDS011;8266;52.150;4.768;2022-10-03T02:24:05;1.80;;;0.80;;
16314;SDS011;8266;52.150;4.768;2022-10-03T02:26:54;5.53;;;1.23;;
16314;SDS011;8266;52.150;4.768;2022-10-03T02:38:40;5.63;;;1.40;;
16314;SDS011;8266;52.150;4.768;2022-10-03T02:41:40;1.35;;;0.60;;
16314;SDS011;8266;52.150;4.768;2022-10-03T02:47:58;4.65;;;1.40;;
16314;SDS011;8266;52.150;4.768;2022-10-03T02:51:01;3.33;;;1.17;;
16314;SDS011;8266;52.150;4.768;2022-10-03T02:54:10;3.03;;;0.75;;
16314;SDS011;8266;52.150;4.768;2022-10-03T03:00:11;3.28;;;1.00;;
16314;SDS011;8266;52.150;4.768;2022-10-03T03:11:39;6.00;;;1.00;;
16314;SDS011;8266;52.150;4.768;2022-10-03T03:17:34;1.33;;;0.73;;
16314;SDS011;8266;52.150;4.768;2022-10-03T03:20:11;4.75;;;1.15;;
16314;SDS011;8266;52.150;4.768;2022-10-03T03:23:01;1.67;;;0.85;;
16314;SDS011;8266;52.150;4.768;2022-10-03T03:25:50;3.10;;;1.00;;
16314;SDS011;8266;52.150;4.768;2022-10-03T03:28:32;6.22;;;1.95;;
16314;SDS011;8266;52.150;4.768;2022-10-03T03:31:13;2.60;;;0.90;;
16314;SDS011;8266;52.150;4.768;2022-10-03T03:33:47;4.13;;;0.95;;
16314;SDS011;8266;52.150;4.768;2022-10-03T03:36:26;8.48;;;1.95;;
16314;SDS011;8266;52.150;4.768;2022-10-03T03:39:01;3.42;;;1.08;;
16314;SDS011;8266;52.150;4.768;2022-10-03T03:41:39;3.38;;;1.00;;
16314;SDS011;8266;52.150;4.768;2022-10-03T03:44:23;5.57;;;1.15;;
16314;SDS011;8266;52.150;4.768;2022-10-03T03:50:08;3.35;;;1.20;;
16314;SDS011;8266;52.150;4.768;2022-10-03T03:52:52;3.10;;;1.30;;
16314;SDS011;8266;52.150;4.768;2022-10-03T03:55:38;3.05;;;1.25;;
16314;SDS011;8266;52.150;4.768;2022-10-03T03:58:20;2.35;;;0.95;;
16314;SDS011;8266;52.150;4.768;2022-10-03T04:01:02;3.42;;;1.15;;
16314;SDS011;8266;52.150;4.768;2022-10-03T04:03:48;4.22;;;0.82;;
16314;SDS011;8266;52.150;4.768;2022-10-03T04:06:26;3.22;;;1.00;;
16314;SDS011;8266;52.150;4.768;2022-10-03T04:09:16;6.47;;;1.10;;
16314;SDS011;8266;52.150;4.768;2022-10-03T04:12:07;3.13;;;1.00;;
16314;SDS011;8266;52.150;4.768;2022-10-03T04:14:48;5.05;;;1.38;;
16314;SDS011;8266;52.150;4.768;2022-10-03T04:17:39;3.10;;;1.10;;
16314;SDS011;8266;52.150;4.768;2022-10-03T04:20:41;4.25;;;1.40;;
16314;SDS011;8266;52.150;4.768;2022-10-03T04:23:27;5.05;;;0.95;;
16314;SDS011;8266;52.150;4.768;2022-10-03T04:26:10;4.88;;;1.20;;
16314;SDS011;8266;52.150;4.768;2022-10-03T04:28:57;3.30;;;1.25;;
16314;SDS011;8266;52.150;4.768;2022-10-03T04:31:53;3.33;;;1.10;;
16314;SDS011;8266;52.150;4.768;2022-10-03T04:34:34;3.35;;;0.95;;
16314;SDS011;8266;52.150;4.768;2022-10-03T04:37:14;3.13;;;1.02;;
16314;SDS011;8266;52.150;4.768;2022-10-03T04:39:54;3.45;;;1.10;;
16314;SDS011;8266;52.150;4.768;2022-10-03T04:42:35;6.88;;;1.98;;
16314;SDS011;8266;52.150;4.768;2022-10-03T04:45:14;3.00;;;0.80;;
16314;SDS011;8266;52.150;4.768;2022-10-03T04:47:55;2.97;;;1.00;;
16314;SDS011;8266;52.150;4.768;2022-10-03T04:50:34;2.92;;;0.98;;
16314;SDS011;8266;52.150;4.768;2022-10-03T04:53:11;3.30;;;1.10;;
16314;SDS011;8266;52.150;4.768;2022-10-03T04:55:47;2.50;;;0.98;;
16314;SDS011;8266;52.150;4.768;2022-10-03T04:58:24;2.90;;;1.10;;
16314;SDS011;8266;52.150;4.768;2022-10-03T05:01:03;4.95;;;1.20;;
16314;SDS011;8266;52.150;4.768;2022-10-03T05:06:40;3.25;;;0.90;;
16314;SDS011;8266;52.150;4.768;2022-10-03T05:09:19;4.32;;;1.10;;
16314;SDS011;8266;52.150;4.768;2022-10-03T05:11:58;2.38;;;1.30;;
16314;SDS011;8266;52.150;4.768;2022-10-03T05:14:37;1.80;;;0.82;;
16314;SDS011;8266;52.150;4.768;2022-10-03T05:17:17;4.45;;;1.45;;
16314;SDS011;8266;52.150;4.768;2022-10-03T05:20:10;2.33;;;1.20;;
16314;SDS011;8266;52.150;4.768;2022-10-03T05:22:51;3.15;;;1.20;;
16314;SDS011;8266;52.150;4.768;2022-10-03T05:25:28;4.82;;;1.13;;
16314;SDS011;8266;52.150;4.768;2022-10-03T05:28:11;3.05;;;1.48;;
16314;SDS011;8266;52.150;4.768;2022-10-03T05:30:48;3.50;;;1.40;;
16314;SDS011;8266;52.150;4.768;2022-10-03T05:33:22;5.00;;;1.60;;
16314;SDS011;8266;52.150;4.768;2022-10-03T05:36:04;2.85;;;1.30;;
16314;SDS011;8266;52.150;4.768;2022-10-03T05:38:58;4.43;;;1.35;;
16314;SDS011;8266;52.150;4.768;2022-10-03T05:41:50;2.83;;;1.25;;
16314;SDS011;8266;52.150;4.768;2022-10-03T05:44:21;7.70;;;1.77;;
16314;SDS011;8266;52.150;4.768;2022-10-03T05:46:58;3.67;;;1.50;;
16314;SDS011;8266;52.150;4.768;2022-10-03T05:49:59;2.67;;;1.05;;
16314;SDS011;8266;52.150;4.768;2022-10-03T05:52:42;5.43;;;0.98;;
16314;SDS011;8266;52.150;4.768;2022-10-03T05:55:37;4.80;;;1.13;;
16314;SDS011;8266;52.150;4.768;2022-10-03T05:58:29;1.50;;;0.80;;
16314;SDS011;8266;52.150;4.768;2022-10-03T06:01:13;4.05;;;1.10;;
16314;SDS011;8266;52.150;4.768;2022-10-03T06:04:09;4.32;;;1.05;;
16314;SDS011;8266;52.150;4.768;2022-10-03T06:07:04;2.90;;;1.10;;
16314;SDS011;8266;52.150;4.768;2022-10-03T06:10:04;4.75;;;1.23;;
16314;SDS011;8266;52.150;4.768;2022-10-03T06:12:56;4.50;;;1.40;;
16314;SDS011;8266;52.150;4.768;2022-10-03T06:15:45;3.40;;;1.17;;
16314;SDS011;8266;52.150;4.768;2022-10-03T06:21:32;3.00;;;1.60;;
16314;SDS011;8266;52.150;4.768;2022-10-03T06:24:36;3.20;;;1.13;;
16314;SDS011;8266;52.150;4.768;2022-10-03T06:27:31;3.90;;;1.35;;
16314;SDS011;8266;52.150;4.768;2022-10-03T06:30:22;5.30;;;1.73;;
16314;SDS011;8266;52.150;4.768;2022-10-03T06:33:14;3.45;;;1.75;;
16314;SDS011;8266;52.150;4.768;2022-10-03T06:48:15;4.45;;;1.20;;
16314;SDS011;8266;52.150;4.768;2022-10-03T06:54:00;3.80;;;1.20;;
16314;SDS011;8266;52.150;4.768;2022-10-03T06:56:46;3.00;;;1.13;;
16314;SDS011;8266;52.150;4.768;2022-10-03T06:59:55;2.80;;;1.25;;
16314;SDS011;8266;52.150;4.768;2022-10-03T07:08:37;1.75;;;1.10;;
16314;SDS011;8266;52.150;4.768;2022-10-03T07:11:30;2.25;;;0.95;;
16314;SDS011;8266;52.150;4.768;2022-10-03T07:17:23;3.42;;;0.95;;
16314;SDS011;8266;52.150;4.768;2022-10-03T07:20:05;3.88;;;1.70;;
16314;SDS011;8266;52.150;4.768;2022-10-03T07:26:08;1.85;;;0.90;;
16314;SDS011;8266;52.150;4.768;2022-10-03T07:29:13;3.08;;;1.00;;
16314;SDS011;8266;52.150;4.768;2022-10-03T07:31:57;3.25;;;1.10;;
16314;SDS011;8266;52.150;4.768;2022-10-03T07:38:07;3.08;;;1.27;;
16314;SDS011;8266;52.150;4.768;2022-10-03T07:41:20;4.15;;;1.20;;
16314;SDS011;8266;52.150;4.768;2022-10-03T07:53:33;4.80;;;2.03;;
16314;SDS011;8266;52.150;4.768;2022-10-03T07:56:18;4.40;;;1.10;;
16314;SDS011;8266;52.150;4.768;2022-10-03T07:59:25;3.22;;;1.30;;
16314;SDS011;8266;52.150;4.768;2022-10-03T08:02:24;4.50;;;1.30;;
16314;SDS011;8266;52.150;4.768;2022-10-03T08:05:17;2.58;;;1.38;;
16314;SDS011;8266;52.150;4.768;2022-10-03T08:07:55;4.22;;;1.15;;
16314;SDS011;8266;52.150;4.768;2022-10-03T08:10:53;3.72;;;1.38;;
16314;SDS011;8266;52.150;4.768;2022-10-03T08:13:52;5.30;;;1.20;;
16314;SDS011;8266;52.150;4.768;2022-10-03T08:16:36;3.75;;;1.25;;
16314;SDS011;8266;52.150;4.768;2022-10-03T08:19:20;3.35;;;1.30;;
16314;SDS011;8266;52.150;4.768;2022-10-03T08:22:14;2.40;;;1.20;;
16314;SDS011;8266;52.150;4.768;2022-10-03T08:25:03;6.10;;;1.70;;
16314;SDS011;8266;52.150;4.768;2022-10-03T08:30:52;5.93;;;1.08;;
16314;SDS011;8266;52.150;4.768;2022-10-03T08:33:43;2.85;;;1.08;;
16314;SDS011;8266;52.150;4.768;2022-10-03T08:36:48;4.13;;;1.15;;
16314;SDS011;8266;52.150;4.768;2022-10-03T08:42:34;4.05;;;1.65;;
16314;SDS011;8266;52.150;4.768;2022-10-03T08:45:22;4.15;;;1.23;;
16314;SDS011;8266;52.150;4.768;2022-10-03T08:51:18;2.83;;;1.40;;
16314;SDS011;8266;52.150;4.768;2022-10-03T08:54:17;3.83;;;1.15;;
16314;SDS011;8266;52.150;4.768;2022-10-03T08:57:15;3.25;;;1.40;;
16314;SDS011;8266;52.150;4.768;2022-10-03T09:09:10;5.53;;;1.33;;
16314;SDS011;8266;52.150;4.768;2022-10-03T09:11:52;4.38;;;1.38;;
16314;SDS011;8266;52.150;4.768;2022-10-03T09:20:29;4.28;;;1.80;;
16314;SDS011;8266;52.150;4.768;2022-10-03T09:23:37;2.80;;;1.30;;
16314;SDS011;8266;52.150;4.768;2022-10-03T09:26:35;4.47;;;1.70;;
16314;SDS011;8266;52.150;4.768;2022-10-03T09:29:35;2.67;;;1.10;;
16314;SDS011;8266;52.150;4.768;2022-10-03T09:32:25;2.78;;;1.20;;
16314;SDS011;8266;52.150;4.768;2022-10-03T09:35:22;3.38;;;1.55;;
16314;SDS011;8266;52.150;4.768;2022-10-03T09:38:26;3.58;;;1.20;;
16314;SDS011;8266;52.150;4.768;2022-10-03T09:41:24;4.15;;;1.35;;
16314;SDS011;8266;52.150;4.768;2022-10-03T09:50:36;3.35;;;1.23;;
16314;SDS011;8266;52.150;4.768;2022-10-03T09:53:35;4.15;;;1.20;;
16314;SDS011;8266;52.150;4.768;2022-10-03T09:56:25;3.60;;;1.42;;
16314;SDS011;8266;52.150;4.768;2022-10-03T10:02:45;3.58;;;1.17;;
16314;SDS011;8266;52.150;4.768;2022-10-03T10:05:52;3.25;;;1.10;;
16314;SDS011;8266;52.150;4.768;2022-10-03T10:08:35;3.65;;;1.20;;
16314;SDS011;8266;52.150;4.768;2022-10-03T10:11:29;4.75;;;1.10;;
16314;SDS011;8266;52.150;4.768;2022-10-03T10:14:21;4.25;;;0.93;;
16314;SDS011;8266;52.150;4.768;2022-10-03T10:23:26;2.85;;;1.00;;
16314;SDS011;8266;52.150;4.768;2022-10-03T10:26:08;4.20;;;1.60;;
16314;SDS011;8266;52.150;4.768;2022-10-03T10:29:09;4.35;;;1.90;;
16314;SDS011;8266;52.150;4.768;2022-10-03T10:38:21;4.45;;;1.58;;
16314;SDS011;8266;52.150;4.768;2022-10-03T10:44:09;3.45;;;1.30;;
16314;SDS011;8266;52.150;4.768;2022-10-03T10:50:31;6.60;;;1.52;;
16314;SDS011;8266;52.150;4.768;2022-10-03T10:56:43;5.00;;;1.40;;
16314;SDS011;8266;52.150;4.768;2022-10-03T11:09:12;2.97;;;1.20;;
16314;SDS011;8266;52.150;4.768;2022-10-03T11:21:37;4.78;;;1.30;;
16314;SDS011;8266;52.150;4.768;2022-10-03T11:24:46;5.55;;;1.50;;
16314;SDS011;8266;52.150;4.768;2022-10-03T11:31:09;4.00;;;1.17;;
16314;SDS011;8266;52.150;4.768;2022-10-03T11:37:23;4.50;;;1.40;;
16314;SDS011;8266;52.150;4.768;2022-10-03T11:40:06;4.30;;;1.42;;
16314;SDS011;8266;52.150;4.768;2022-10-03T11:42:48;5.55;;;1.40;;
16314;SDS011;8266;52.150;4.768;2022-10-03T11:45:23;5.78;;;1.60;;
16314;SDS011;8266;52.150;4.768;2022-10-03T11:48:00;3.75;;;1.92;;
16314;SDS011;8266;52.150;4.768;2022-10-03T11:50:44;3.95;;;1.40;;
16314;SDS011;8266;52.150;4.768;2022-10-03T11:53:17;3.10;;;1.38;;
16314;SDS011;8266;52.150;4.768;2022-10-03T11:56:12;4.95;;;1.65;;
16314;SDS011;8266;52.150;4.768;2022-10-03T11:58:52;4.72;;;1.33;;
16314;SDS011;8266;52.150;4.768;2022-10-03T12:01:28;4.80;;;1.50;;
16314;SDS011;8266;52.150;4.768;2022-10-03T12:04:10;5.85;;;2.08;;
16314;SDS011;8266;52.150;4.768;2022-10-03T12:06:50;5.10;;;1.45;;
16314;SDS011;8266;52.150;4.768;2022-10-03T12:09:56;6.20;;;1.20;;
16314;SDS011;8266;52.150;4.768;2022-10-03T12:12:36;4.57;;;1.20;;
16314;SDS011;8266;52.150;4.768;2022-10-03T12:15:20;3.83;;;1.27;;
16314;SDS011;8266;52.150;4.768;2022-10-03T12:17:56;4.80;;;1.50;;
16314;SDS011;8266;52.150;4.768;2022-10-03T12:20:30;4.90;;;1.30;;
16314;SDS011;8266;52.150;4.768;2022-10-03T12:23:06;4.22;;;1.45;;
16314;SDS011;8266;52.150;4.768;2022-10-03T12:25:42;5.10;;;1.20;;
16314;SDS011;8266;52.150;4.768;2022-10-03T12:28:16;4.30;;;1.30;;
16314;SDS011;8266;52.150;4.768;2022-10-03T12:30:47;4.22;;;1.40;;
16314;SDS011;8266;52.150;4.768;2022-10-03T12:33:31;5.03;;;2.00;;
16314;SDS011;8266;52.150;4.768;2022-10-03T12:36:09;5.07;;;1.40;;
16314;SDS011;8266;52.150;4.768;2022-10-03T12:38:44;4.68;;;1.38;;
16314;SDS011;8266;52.150;4.768;2022-10-03T12:41:33;3.55;;;1.27;;
16314;SDS011;8266;52.150;4.768;2022-10-03T12:44:23;5.78;;;1.70;;
16314;SDS011;8266;52.150;4.768;2022-10-03T12:47:08;3.70;;;1.17;;
16314;SDS011;8266;52.150;4.768;2022-10-03T12:49:49;4.65;;;1.00;;
16314;SDS011;8266;52.150;4.768;2022-10-03T12:52:24;2.90;;;1.20;;
16314;SDS011;8266;52.150;4.768;2022-10-03T12:54:58;2.92;;;1.10;;
16314;SDS011;8266;52.150;4.768;2022-10-03T12:57:53;3.78;;;1.25;;
16314;SDS011;8266;52.150;4.768;2022-10-03T13:00:27;4.45;;;0.95;;
16314;SDS011;8266;52.150;4.768;2022-10-03T13:03:10;4.55;;;0.77;;
16314;SDS011;8266;52.150;4.768;2022-10-03T13:08:41;2.80;;;0.65;;
16314;SDS011;8266;52.150;4.768;2022-10-03T13:11:23;5.32;;;0.93;;
16314;SDS011;8266;52.150;4.768;2022-10-03T13:14:11;5.95;;;1.75;;
16314;SDS011;8266;52.150;4.768;2022-10-03T13:16:52;2.88;;;1.52;;
16314;SDS011;8266;52.150;4.768;2022-10-03T13:19:27;3.72;;;1.13;;
16314;SDS011;8266;52.150;4.768;2022-10-03T13:22:01;2.85;;;1.02;;
16314;SDS011;8266;52.150;4.768;2022-10-03T13:24:38;4.32;;;1.33;;
16314;SDS011;8266;52.150;4.768;2022-10-03T13:27:23;4.72;;;1.30;;
16314;SDS011;8266;52.150;4.768;2022-10-03T13:29:59;4.95;;;1.50;;
16314;SDS011;8266;52.150;4.768;2022-10-03T13:32:33;4.90;;;1.98;;
16314;SDS011;8266;52.150;4.768;2022-10-03T13:35:09;5.82;;;1.50;;
16314;SDS011;8266;52.150;4.768;2022-10-03T13:38:14;4.55;;;1.67;;
16314;SDS011;8266;52.150;4.768;2022-10-03T13:40:57;5.60;;;1.42;;
16314;SDS011;8266;52.150;4.768;2022-10-03T13:43:34;4.13;;;1.40;;
16314;SDS011;8266;52.150;4.768;2022-10-03T13:46:04;9.25;;;1.70;;
16314;SDS011;8266;52.150;4.768;2022-10-03T13:48:39;7.18;;;2.10;;
16314;SDS011;8266;52.150;4.768;2022-10-03T13:51:13;5.30;;;1.65;;
16314;SDS011;8266;52.150;4.768;2022-10-03T13:53:52;3.00;;;1.38;;
16314;SDS011;8266;52.150;4.768;2022-10-03T13:56:29;5.22;;;1.60;;
16314;SDS011;8266;52.150;4.768;2022-10-03T14:02:25;5.60;;;1.60;;
16314;SDS011;8266;52.150;4.768;2022-10-03T14:05:12;11.77;;;1.95;;
16314;SDS011;8266;52.150;4.768;2022-10-03T14:08:02;5.55;;;1.63;;
16314;SDS011;8266;52.150;4.768;2022-10-03T14:10:49;4.32;;;1.30;;
16314;SDS011;8266;52.150;4.768;2022-10-03T14:13:31;2.72;;;1.27;;
16314;SDS011;8266;52.150;4.768;2022-10-03T14:16:10;3.72;;;1.27;;
16314;SDS011;8266;52.150;4.768;2022-10-03T14:18:48;4.45;;;1.52;;
16314;SDS011;8266;52.150;4.768;2022-10-03T14:21:32;4.90;;;1.77;;
16314;SDS011;8266;52.150;4.768;2022-10-03T14:27:12;3.92;;;1.27;;
16314;SDS011;8266;52.150;4.768;2022-10-03T14:30:01;5.60;;;1.88;;
16314;SDS011;8266;52.150;4.768;2022-10-03T14:32:38;8.45;;;1.42;;
16314;SDS011;8266;52.150;4.768;2022-10-03T14:35:29;5.63;;;1.48;;
16314;SDS011;8266;52.150;4.768;2022-10-03T14:38:06;6.63;;;1.77;;
16314;SDS011;8266;52.150;4.768;2022-10-03T14:40:47;4.30;;;1.50;;
16314;SDS011;8266;52.150;4.768;2022-10-03T14:43:20;6.13;;;1.80;;
16314;SDS011;8266;52.150;4.768;2022-10-03T14:46:03;4.68;;;1.75;;
16314;SDS011;8266;52.150;4.768;2022-10-03T14:48:35;3.85;;;1.52;;
16314;SDS011;8266;52.150;4.768;2022-10-03T14:51:07;3.67;;;1.20;;
16314;SDS011;8266;52.150;4.768;2022-10-03T14:53:40;4.00;;;1.30;;
16314;SDS011;8266;52.150;4.768;2022-10-03T14:56:17;3.83;;;1.75;;
16314;SDS011;8266;52.150;4.768;2022-10-03T14:58:46;3.28;;;1.48;;
16314;SDS011;8266;52.150;4.768;2022-10-03T15:01:16;4.95;;;1.58;;
16314;SDS011;8266;52.150;4.768;2022-10-03T15:03:51;4.93;;;1.42;;
16314;SDS011;8266;52.150;4.768;2022-10-03T15:06:33;4.13;;;1.58;;
16314;SDS011;8266;52.150;4.768;2022-10-03T15:09:16;5.20;;;1.83;;
16314;SDS011;8266;52.150;4.768;2022-10-03T15:11:47;4.95;;;1.55;;
16314;SDS011;8266;52.150;4.768;2022-10-03T15:14:18;4.82;;;1.75;;
16314;SDS011;8266;52.150;4.768;2022-10-03T15:16:48;10.43;;;1.70;;
16314;SDS011;8266;52.150;4.768;2022-10-03T15:19:19;5.22;;;1.70;;
16314;SDS011;8266;52.150;4.768;2022-10-03T15:21:53;5.93;;;1.98;;
16314;SDS011;8266;52.150;4.768;2022-10-03T15:24:26;6.63;;;1.83;;
16314;SDS011;8266;52.150;4.768;2022-10-03T15:26:59;4.82;;;1.95;;
16314;SDS011;8266;52.150;4.768;2022-10-03T15:29:29;4.70;;;1.60;;
16314;SDS011;8266;52.150;4.768;2022-10-03T15:32:00;6.97;;;1.52;;
16314;SDS011;8266;52.150;4.768;2022-10-03T15:34:31;6.18;;;1.95;;
16314;SDS011;8266;52.150;4.768;2022-10-03T15:37:04;5.88;;;1.95;;
16314;SDS011;8266;52.150;4.768;2022-10-03T15:39:39;5.80;;;2.03;;
16314;SDS011;8266;52.150;4.768;2022-10-03T15:42:18;11.80;;;2.20;;
16314;SDS011;8266;52.150;4.768;2022-10-03T15:44:48;2.95;;;1.15;;
16314;SDS011;8266;52.150;4.768;2022-10-03T15:47:18;5.40;;;2.10;;
16314;SDS011;8266;52.150;4.768;2022-10-03T15:49:48;7.90;;;2.10;;
16314;SDS011;8266;52.150;4.768;2022-10-03T15:52:22;6.57;;;1.90;;
16314;SDS011;8266;52.150;4.768;2022-10-03T15:55:06;5.88;;;1.90;;
16314;SDS011;8266;52.150;4.768;2022-10-03T15:57:45;2.75;;;1.20;;
16314;SDS011;8266;52.150;4.768;2022-10-03T16:00:20;5.07;;;1.67;;
16314;SDS011;8266;52.150;4.768;2022-10-03T16:02:50;7.25;;;2.05;;
16314;SDS011;8266;52.150;4.768;2022-10-03T16:05:24;3.65;;;1.45;;
16314;SDS011;8266;52.150;4.768;2022-10-03T16:07:54;5.70;;;1.92;;
16314;SDS011;8266;52.150;4.768;2022-10-03T16:10:28;3.88;;;1.45;;
16314;SDS011;8266;52.150;4.768;2022-10-03T16:13:01;3.72;;;1.42;;
16314;SDS011;8266;52.150;4.768;2022-10-03T16:15:47;4.78;;;1.67;;
16314;SDS011;8266;52.150;4.768;2022-10-03T16:21:31;4.30;;;1.80;;
16314;SDS011;8266;52.150;4.768;2022-10-03T16:24:15;4.47;;;1.70;;
16314;SDS011;8266;52.150;4.768;2022-10-03T16:26:49;3.88;;;1.50;;
16314;SDS011;8266;52.150;4.768;2022-10-03T16:29:20;5.65;;;1.90;;
16314;SDS011;8266;52.150;4.768;2022-10-03T16:31:54;4.32;;;1.73;;
16314;SDS011;8266;52.150;4.768;2022-10-03T16:34:29;5.65;;;1.90;;
16314;SDS011;8266;52.150;4.768;2022-10-03T16:36:58;5.68;;;1.83;;
16314;SDS011;8266;52.150;4.768;2022-10-03T16:39:27;4.85;;;2.00;;
16314;SDS011;8266;52.150;4.768;2022-10-03T16:41:59;5.18;;;2.05;;
16314;SDS011;8266;52.150;4.768;2022-10-03T16:44:37;5.82;;;1.95;;
16314;SDS011;8266;52.150;4.768;2022-10-03T16:47:13;6.97;;;2.38;;
16314;SDS011;8266;52.150;4.768;2022-10-03T16:49:44;5.15;;;2.10;;
16314;SDS011;8266;52.150;4.768;2022-10-03T16:52:34;5.03;;;2.10;;
16314;SDS011;8266;52.150;4.768;2022-10-03T16:55:03;6.13;;;2.10;;
16314;SDS011;8266;52.150;4.768;2022-10-03T16:57:39;4.97;;;2.78;;
16314;SDS011;8266;52.150;4.768;2022-10-03T17:00:13;5.75;;;2.97;;
16314;SDS011;8266;52.150;4.768;2022-10-03T17:02:45;7.07;;;3.03;;
16314;SDS011;8266;52.150;4.768;2022-10-03T17:05:13;6.55;;;3.30;;
16314;SDS011;8266;52.150;4.768;2022-10-03T17:07:41;5.90;;;2.33;;
16314;SDS011;8266;52.150;4.768;2022-10-03T17:10:19;5.72;;;2.63;;
16314;SDS011;8266;52.150;4.768;2022-10-03T17:12:55;7.60;;;3.47;;
16314;SDS011;8266;52.150;4.768;2022-10-03T17:15:25;8.43;;;2.60;;
16314;SDS011;8266;52.150;4.768;2022-10-03T17:17:56;8.88;;;2.47;;
16314;SDS011;8266;52.150;4.768;2022-10-03T17:20:36;5.63;;;1.90;;
16314;SDS011;8266;52.150;4.768;2022-10-03T17:23:09;4.32;;;2.38;;
16314;SDS011;8266;52.150;4.768;2022-10-03T17:25:46;4.07;;;2.20;;
16314;SDS011;8266;52.150;4.768;2022-10-03T17:28:27;5.20;;;2.40;;
16314;SDS011;8266;52.150;4.768;2022-10-03T17:30:59;7.40;;;4.23;;
16314;SDS011;8266;52.150;4.768;2022-10-03T17:33:31;5.43;;;3.88;;
16314;SDS011;8266;52.150;4.768;2022-10-03T17:36:09;5.75;;;2.65;;
16314;SDS011;8266;52.150;4.768;2022-10-03T17:39:03;6.25;;;3.15;;
16314;SDS011;8266;52.150;4.768;2022-10-03T17:41:34;6.00;;;2.47;;
16314;SDS011;8266;52.150;4.768;2022-10-03T17:44:14;5.60;;;2.75;;
16314;SDS011;8266;52.150;4.768;2022-10-03T17:46:50;7.72;;;3.15;;
16314;SDS011;8266;52.150;4.768;2022-10-03T17:49:24;8.15;;;3.03;;
16314;SDS011;8266;52.150;4.768;2022-10-03T17:52:01;5.85;;;3.15;;
16314;SDS011;8266;52.150;4.768;2022-10-03T17:54:31;8.38;;;4.00;;
16314;SDS011;8266;52.150;4.768;2022-10-03T17:57:03;7.63;;;3.83;;
16314;SDS011;8266;52.150;4.768;2022-10-03T17:59:41;5.13;;;3.08;;
16314;SDS011;8266;52.150;4.768;2022-10-03T18:02:14;7.25;;;3.67;;
16314;SDS011;8266;52.150;4.768;2022-10-03T18:04:47;5.30;;;3.17;;
16314;SDS011;8266;52.150;4.768;2022-10-03T18:07:22;6.38;;;3.42;;
16314;SDS011;8266;52.150;4.768;2022-10-03T18:09:54;4.55;;;3.22;;
16314;SDS011;8266;52.150;4.768;2022-10-03T18:12:24;7.55;;;3.75;;
16314;SDS011;8266;52.150;4.768;2022-10-03T18:15:10;7.28;;;3.80;;
16314;SDS011;8266;52.150;4.768;2022-10-03T18:17:57;6.85;;;3.58;;
16314;SDS011;8266;52.150;4.768;2022-10-03T18:20:40;6.65;;;3.42;;
16314;SDS011;8266;52.150;4.768;2022-10-03T18:23:15;4.22;;;3.08;;
16314;SDS011;8266;52.150;4.768;2022-10-03T18:25:50;6.53;;;2.88;;
16314;SDS011;8266;52.150;4.768;2022-10-03T18:28:25;6.05;;;2.33;;
16314;SDS011;8266;52.150;4.768;2022-10-03T18:30:59;4.35;;;2.55;;
16314;SDS011;8266;52.150;4.768;2022-10-03T18:33:32;5.18;;;2.35;;
16314;SDS011;8266;52.150;4.768;2022-10-03T18:36:18;5.45;;;2.72;;
16314;SDS011;8266;52.150;4.768;2022-10-03T18:38:47;5.03;;;3.08;;
16314;SDS011;8266;52.150;4.768;2022-10-03T18:41:17;8.68;;;4.07;;
16314;SDS011;8266;52.150;4.768;2022-10-03T18:43:50;6.53;;;3.78;;
16314;SDS011;8266;52.150;4.768;2022-10-03T18:46:25;7.55;;;3.22;;
16314;SDS011;8266;52.150;4.768;2022-10-03T18:49:01;7.30;;;2.65;;
16314;SDS011;8266;52.150;4.768;2022-10-03T18:51:42;5.97;;;2.78;;
16314;SDS011;8266;52.150;4.768;2022-10-03T18:54:19;6.70;;;2.83;;
16314;SDS011;8266;52.150;4.768;2022-10-03T18:57:00;6.43;;;3.00;;
16314;SDS011;8266;52.150;4.768;2022-10-03T18:59:33;6.07;;;2.63;;
16314;SDS011;8266;52.150;4.768;2022-10-03T19:02:13;4.75;;;2.85;;
16314;SDS011;8266;52.150;4.768;2022-10-03T19:04:44;7.85;;;3.10;;
16314;SDS011;8266;52.150;4.768;2022-10-03T19:07:19;4.80;;;2.70;;
16314;SDS011;8266;52.150;4.768;2022-10-03T19:10:08;6.95;;;3.00;;
16314;SDS011;8266;52.150;4.768;2022-10-03T19:12:53;5.40;;;3.25;;
16314;SDS011;8266;52.150;4.768;2022-10-03T19:15:30;5.50;;;2.45;;
16314;SDS011;8266;52.150;4.768;2022-10-03T19:18:13;6.43;;;2.85;;
16314;SDS011;8266;52.150;4.768;2022-10-03T19:20:47;7.00;;;2.97;;
16314;SDS011;8266;52.150;4.768;2022-10-03T19:23:17;9.23;;;2.50;;
16314;SDS011;8266;52.150;4.768;2022-10-03T19:25:51;7.22;;;2.63;;
16314;SDS011;8266;52.150;4.768;2022-10-03T19:28:22;6.60;;;2.70;;
16314;SDS011;8266;52.150;4.768;2022-10-03T19:30:55;6.85;;;2.80;;